sensor_id;sensor_type;location;lat;lon;timestamp;temperature;humidity
13606;DHT22;6874;52.084;5.090;2023-04-06T00:01:32;6.30;99.90
13606;DHT22;6874;52.084;5.090;2023-04-06T00:03:58;6.30;99.90
13606;DHT22;6874;52.084;5.090;2023-04-06T00:06:23;6.30;99.90
13606;DHT22;6874;52.084;5.090;2023-04-06T00:08:49;6.20;99.90
13606;DHT22;6874;52.084;5.090;2023-04-06T00:11:14;6.30;99.90
13606;DHT22;6874;52.084;5.090;2023-04-06T00:13:42;6.20;99.90
13606;DHT22;6874;52.084;5.090;2023-04-06T00:16:07;6.20;99.90
13606;DHT22;6874;52.084;5.090;2023-04-06T00:18:33;6.20;99.90
13606;DHT22;6874;52.084;5.090;2023-04-06T00:20:58;6.10;99.90
13606;DHT22;6874;52.084;5.090;2023-04-06T00:23:24;6.10;99.90
13606;DHT22;6874;52.084;5.090;2023-04-06T00:25:49;6.10;99.90
13606;DHT22;6874;52.084;5.090;2023-04-06T00:28:15;6.10;99.90
13606;DHT22;6874;52.084;5.090;2023-04-06T00:30:41;6.10;99.90
13606;DHT22;6874;52.084;5.090;2023-04-06T00:33:07;6.00;99.90
13606;DHT22;6874;52.084;5.090;2023-04-06T00:35:32;6.00;99.90
13606;DHT22;6874;52.084;5.090;2023-04-06T00:37:58;6.00;99.90
13606;DHT22;6874;52.084;5.090;2023-04-06T00:40:23;6.00;99.90
13606;DHT22;6874;52.084;5.090;2023-04-06T00:42:49;6.00;99.90
13606;DHT22;6874;52.084;5.090;2023-04-06T00:45:15;5.90;99.90
13606;DHT22;6874;52.084;5.090;2023-04-06T00:47:41;6.00;99.90
13606;DHT22;6874;52.084;5.090;2023-04-06T00:50:07;5.90;99.90
13606;DHT22;6874;52.084;5.090;2023-04-06T00:52:34;5.90;99.90
13606;DHT22;6874;52.084;5.090;2023-04-06T00:55:01;5.90;99.90
13606;DHT22;6874;52.084;5.090;2023-04-06T00:57:26;5.80;99.90
13606;DHT22;6874;52.084;5.090;2023-04-06T00:59:52;5.80;99.90
13606;DHT22;6874;52.084;5.090;2023-04-06T01:02:18;5.80;99.90
13606;DHT22;6874;52.084;5.090;2023-04-06T01:04:44;5.80;99.90
13606;DHT22;6874;52.084;5.090;2023-04-06T01:07:09;5.80;99.90
13606;DHT22;6874;52.084;5.090;2023-04-06T01:09:35;5.80;99.90
13606;DHT22;6874;52.084;5.090;2023-04-06T01:12:01;5.70;99.90
13606;DHT22;6874;52.084;5.090;2023-04-06T01:14:27;5.70;99.90
13606;DHT22;6874;52.084;5.090;2023-04-06T01:16:53;5.70;99.90
13606;DHT22;6874;52.084;5.090;2023-04-06T01:19:19;5.70;99.90
13606;DHT22;6874;52.084;5.090;2023-04-06T01:21:46;5.70;99.90
13606;DHT22;6874;52.084;5.090;2023-04-06T01:24:11;5.70;99.90
13606;DHT22;6874;52.084;5.090;2023-04-06T01:26:38;5.60;99.90
13606;DHT22;6874;52.084;5.090;2023-04-06T01:29:04;5.60;99.90
13606;DHT22;6874;52.084;5.090;2023-04-06T01:31:29;5.60;99.90
13606;DHT22;6874;52.084;5.090;2023-04-06T01:33:55;5.60;99.90
13606;DHT22;6874;52.084;5.090;2023-04-06T01:36:21;5.60;99.90
13606;DHT22;6874;52.084;5.090;2023-04-06T01:38:47;5.60;99.90
13606;DHT22;6874;52.084;5.090;2023-04-06T01:41:12;5.60;99.90
13606;DHT22;6874;52.084;5.090;2023-04-06T01:43:38;5.60;99.90
13606;DHT22;6874;52.084;5.090;2023-04-06T01:46:03;5.60;99.90
13606;DHT22;6874;52.084;5.090;2023-04-06T01:48:29;5.50;99.90
13606;DHT22;6874;52.084;5.090;2023-04-06T01:50:55;5.60;99.90
13606;DHT22;6874;52.084;5.090;2023-04-06T01:53:21;5.60;99.90
13606;DHT22;6874;52.084;5.090;2023-04-06T01:55:46;5.60;99.90
13606;DHT22;6874;52.084;5.090;2023-04-06T01:58:12;5.50;99.90
13606;DHT22;6874;52.084;5.090;2023-04-06T02:00:39;5.50;99.90
13606;DHT22;6874;52.084;5.090;2023-04-06T02:03:04;5.50;99.90
13606;DHT22;6874;52.084;5.090;2023-04-06T02:05:32;5.50;99.90
13606;DHT22;6874;52.084;5.090;2023-04-06T02:08:05;5.50;99.90
13606;DHT22;6874;52.084;5.090;2023-04-06T02:10:31;5.50;99.90
13606;DHT22;6874;52.084;5.090;2023-04-06T02:12:57;5.50;99.90
13606;DHT22;6874;52.084;5.090;2023-04-06T02:15:23;5.50;99.90
13606;DHT22;6874;52.084;5.090;2023-04-06T02:17:48;5.50;99.90
13606;DHT22;6874;52.084;5.090;2023-04-06T02:20:14;5.50;99.90
13606;DHT22;6874;52.084;5.090;2023-04-06T02:22:39;5.50;99.90
13606;DHT22;6874;52.084;5.090;2023-04-06T02:25:05;5.50;99.90
13606;DHT22;6874;52.084;5.090;2023-04-06T02:27:31;5.50;99.90
13606;DHT22;6874;52.084;5.090;2023-04-06T02:29:57;5.50;99.90
13606;DHT22;6874;52.084;5.090;2023-04-06T02:32:22;5.50;99.90
13606;DHT22;6874;52.084;5.090;2023-04-06T02:34:48;5.50;99.90
13606;DHT22;6874;52.084;5.090;2023-04-06T02:37:13;5.50;99.90
13606;DHT22;6874;52.084;5.090;2023-04-06T02:39:39;5.50;99.90
13606;DHT22;6874;52.084;5.090;2023-04-06T02:42:04;5.50;99.90
13606;DHT22;6874;52.084;5.090;2023-04-06T02:44:30;5.50;99.90
13606;DHT22;6874;52.084;5.090;2023-04-06T02:46:56;5.40;99.90
13606;DHT22;6874;52.084;5.090;2023-04-06T02:49:21;5.50;99.90
13606;DHT22;6874;52.084;5.090;2023-04-06T02:51:47;5.50;99.90
13606;DHT22;6874;52.084;5.090;2023-04-06T02:54:12;5.40;99.90
13606;DHT22;6874;52.084;5.090;2023-04-06T02:56:38;5.40;99.90
13606;DHT22;6874;52.084;5.090;2023-04-06T02:59:03;5.40;99.90
13606;DHT22;6874;52.084;5.090;2023-04-06T03:01:29;5.40;99.90
13606;DHT22;6874;52.084;5.090;2023-04-06T03:03:54;5.40;99.90
13606;DHT22;6874;52.084;5.090;2023-04-06T03:06:20;5.40;99.90
13606;DHT22;6874;52.084;5.090;2023-04-06T03:08:46;5.40;99.90
13606;DHT22;6874;52.084;5.090;2023-04-06T03:11:12;5.40;99.90
13606;DHT22;6874;52.084;5.090;2023-04-06T03:13:38;5.40;99.90
13606;DHT22;6874;52.084;5.090;2023-04-06T03:16:06;5.40;99.90
13606;DHT22;6874;52.084;5.090;2023-04-06T03:18:32;5.40;99.90
13606;DHT22;6874;52.084;5.090;2023-04-06T03:20:58;5.40;99.90
13606;DHT22;6874;52.084;5.090;2023-04-06T03:23:25;5.40;99.90
13606;DHT22;6874;52.084;5.090;2023-04-06T03:25:51;5.40;99.90
13606;DHT22;6874;52.084;5.090;2023-04-06T03:28:16;5.40;99.90
13606;DHT22;6874;52.084;5.090;2023-04-06T03:30:42;5.30;99.90
13606;DHT22;6874;52.084;5.090;2023-04-06T03:33:08;5.30;99.90
13606;DHT22;6874;52.084;5.090;2023-04-06T03:35:33;5.30;99.90
13606;DHT22;6874;52.084;5.090;2023-04-06T03:37:59;5.30;99.90
13606;DHT22;6874;52.084;5.090;2023-04-06T03:40:25;5.30;99.90
13606;DHT22;6874;52.084;5.090;2023-04-06T03:42:50;5.30;99.90
13606;DHT22;6874;52.084;5.090;2023-04-06T03:45:16;5.30;99.90
13606;DHT22;6874;52.084;5.090;2023-04-06T03:47:42;5.30;99.90
13606;DHT22;6874;52.084;5.090;2023-04-06T03:50:08;5.30;99.90
13606;DHT22;6874;52.084;5.090;2023-04-06T03:52:35;5.20;99.90
13606;DHT22;6874;52.084;5.090;2023-04-06T03:55:00;5.30;99.90
13606;DHT22;6874;52.084;5.090;2023-04-06T03:57:26;5.20;99.90
13606;DHT22;6874;52.084;5.090;2023-04-06T03:59:51;5.20;99.90
13606;DHT22;6874;52.084;5.090;2023-04-06T04:02:17;5.20;99.90
13606;DHT22;6874;52.084;5.090;2023-04-06T04:04:42;5.20;99.90
13606;DHT22;6874;52.084;5.090;2023-04-06T04:07:08;5.20;99.90
13606;DHT22;6874;52.084;5.090;2023-04-06T04:09:33;5.20;99.90
13606;DHT22;6874;52.084;5.090;2023-04-06T04:11:59;5.20;99.90
13606;DHT22;6874;52.084;5.090;2023-04-06T04:14:25;5.20;99.90
13606;DHT22;6874;52.084;5.090;2023-04-06T04:16:50;5.20;99.90
13606;DHT22;6874;52.084;5.090;2023-04-06T04:19:16;5.20;99.90
13606;DHT22;6874;52.084;5.090;2023-04-06T04:21:43;5.20;99.90
13606;DHT22;6874;52.084;5.090;2023-04-06T04:24:10;5.20;99.90
13606;DHT22;6874;52.084;5.090;2023-04-06T04:26:35;5.20;99.90
13606;DHT22;6874;52.084;5.090;2023-04-06T04:29:01;5.10;99.90
13606;DHT22;6874;52.084;5.090;2023-04-06T04:31:26;5.10;99.90
13606;DHT22;6874;52.084;5.090;2023-04-06T04:33:52;5.10;99.90
13606;DHT22;6874;52.084;5.090;2023-04-06T04:36:17;5.10;99.90
13606;DHT22;6874;52.084;5.090;2023-04-06T04:38:43;5.10;99.90
13606;DHT22;6874;52.084;5.090;2023-04-06T04:41:08;5.10;99.90
13606;DHT22;6874;52.084;5.090;2023-04-06T04:43:34;5.20;99.90
13606;DHT22;6874;52.084;5.090;2023-04-06T04:46:00;5.10;99.90
13606;DHT22;6874;52.084;5.090;2023-04-06T04:48:25;5.10;99.90
13606;DHT22;6874;52.084;5.090;2023-04-06T04:50:51;5.10;99.90
13606;DHT22;6874;52.084;5.090;2023-04-06T04:53:16;5.10;99.90
13606;DHT22;6874;52.084;5.090;2023-04-06T04:55:42;5.10;99.90
13606;DHT22;6874;52.084;5.090;2023-04-06T04:58:08;5.10;99.90
13606;DHT22;6874;52.084;5.090;2023-04-06T05:00:34;5.10;99.90
13606;DHT22;6874;52.084;5.090;2023-04-06T05:03:00;5.10;99.90
13606;DHT22;6874;52.084;5.090;2023-04-06T05:05:25;5.10;99.90
13606;DHT22;6874;52.084;5.090;2023-04-06T05:07:51;5.10;99.90
13606;DHT22;6874;52.084;5.090;2023-04-06T05:10:17;5.10;99.90
13606;DHT22;6874;52.084;5.090;2023-04-06T05:12:42;5.10;99.90
13606;DHT22;6874;52.084;5.090;2023-04-06T05:15:09;5.10;99.90
13606;DHT22;6874;52.084;5.090;2023-04-06T05:17:34;5.10;99.90
13606;DHT22;6874;52.084;5.090;2023-04-06T05:20:00;5.10;99.90
13606;DHT22;6874;52.084;5.090;2023-04-06T05:22:26;5.10;99.90
13606;DHT22;6874;52.084;5.090;2023-04-06T05:24:51;5.10;99.90
13606;DHT22;6874;52.084;5.090;2023-04-06T05:27:17;5.10;99.90
13606;DHT22;6874;52.084;5.090;2023-04-06T05:29:42;5.10;99.90
13606;DHT22;6874;52.084;5.090;2023-04-06T05:32:08;5.10;99.90
13606;DHT22;6874;52.084;5.090;2023-04-06T05:34:33;5.10;99.90
13606;DHT22;6874;52.084;5.090;2023-04-06T05:36:59;5.10;99.90
13606;DHT22;6874;52.084;5.090;2023-04-06T05:39:24;5.10;99.90
13606;DHT22;6874;52.084;5.090;2023-04-06T05:41:50;5.10;99.90
13606;DHT22;6874;52.084;5.090;2023-04-06T05:44:16;5.10;99.90
13606;DHT22;6874;52.084;5.090;2023-04-06T05:46:42;5.10;99.90
13606;DHT22;6874;52.084;5.090;2023-04-06T05:49:07;5.10;99.90
13606;DHT22;6874;52.084;5.090;2023-04-06T05:51:33;5.10;99.90
13606;DHT22;6874;52.084;5.090;2023-04-06T05:53:59;5.10;99.90
13606;DHT22;6874;52.084;5.090;2023-04-06T05:56:24;5.10;99.90
13606;DHT22;6874;52.084;5.090;2023-04-06T05:58:50;5.10;99.90
13606;DHT22;6874;52.084;5.090;2023-04-06T06:01:16;5.10;99.90
13606;DHT22;6874;52.084;5.090;2023-04-06T06:03:41;5.10;99.90
13606;DHT22;6874;52.084;5.090;2023-04-06T06:06:07;5.10;99.90
13606;DHT22;6874;52.084;5.090;2023-04-06T06:08:33;5.10;99.90
13606;DHT22;6874;52.084;5.090;2023-04-06T06:10:58;5.10;99.90
13606;DHT22;6874;52.084;5.090;2023-04-06T06:13:24;5.10;99.90
13606;DHT22;6874;52.084;5.090;2023-04-06T06:15:50;5.20;99.90
13606;DHT22;6874;52.084;5.090;2023-04-06T06:18:16;5.20;99.90
13606;DHT22;6874;52.084;5.090;2023-04-06T06:20:41;5.20;99.90
13606;DHT22;6874;52.084;5.090;2023-04-06T06:23:07;5.30;99.90
13606;DHT22;6874;52.084;5.090;2023-04-06T06:25:32;5.30;99.90
13606;DHT22;6874;52.084;5.090;2023-04-06T06:27:59;5.30;99.90
13606;DHT22;6874;52.084;5.090;2023-04-06T06:30:24;5.30;99.90
13606;DHT22;6874;52.084;5.090;2023-04-06T06:32:50;5.40;99.90
13606;DHT22;6874;52.084;5.090;2023-04-06T06:35:16;5.40;99.90
13606;DHT22;6874;52.084;5.090;2023-04-06T06:37:42;5.40;99.90
13606;DHT22;6874;52.084;5.090;2023-04-06T06:40:09;5.40;99.90
13606;DHT22;6874;52.084;5.090;2023-04-06T06:42:35;5.40;99.90
13606;DHT22;6874;52.084;5.090;2023-04-06T06:45:01;5.50;99.90
13606;DHT22;6874;52.084;5.090;2023-04-06T06:47:26;5.50;99.90
13606;DHT22;6874;52.084;5.090;2023-04-06T06:49:52;5.50;99.90
13606;DHT22;6874;52.084;5.090;2023-04-06T06:52:18;5.50;99.90
13606;DHT22;6874;52.084;5.090;2023-04-06T06:54:44;5.60;99.90
13606;DHT22;6874;52.084;5.090;2023-04-06T06:57:09;5.50;99.90
13606;DHT22;6874;52.084;5.090;2023-04-06T06:59:35;5.60;99.90
13606;DHT22;6874;52.084;5.090;2023-04-06T07:02:01;5.60;99.90
13606;DHT22;6874;52.084;5.090;2023-04-06T07:04:26;5.60;99.90
13606;DHT22;6874;52.084;5.090;2023-04-06T07:06:52;5.60;99.90
13606;DHT22;6874;52.084;5.090;2023-04-06T07:09:18;5.60;99.90
13606;DHT22;6874;52.084;5.090;2023-04-06T07:11:43;5.70;99.90
13606;DHT22;6874;52.084;5.090;2023-04-06T07:14:09;5.70;99.90
13606;DHT22;6874;52.084;5.090;2023-04-06T07:16:34;5.70;99.90
13606;DHT22;6874;52.084;5.090;2023-04-06T07:19:00;5.70;99.90
13606;DHT22;6874;52.084;5.090;2023-04-06T07:21:26;5.80;99.90
13606;DHT22;6874;52.084;5.090;2023-04-06T07:23:51;5.80;99.90
13606;DHT22;6874;52.084;5.090;2023-04-06T07:26:17;5.80;99.90
13606;DHT22;6874;52.084;5.090;2023-04-06T07:28:43;5.90;99.90
13606;DHT22;6874;52.084;5.090;2023-04-06T07:31:08;5.90;99.90
13606;DHT22;6874;52.084;5.090;2023-04-06T07:33:34;5.90;99.90
13606;DHT22;6874;52.084;5.090;2023-04-06T07:36:00;6.00;99.90
13606;DHT22;6874;52.084;5.090;2023-04-06T07:38:25;6.00;99.90
13606;DHT22;6874;52.084;5.090;2023-04-06T07:40:51;6.00;99.90
13606;DHT22;6874;52.084;5.090;2023-04-06T07:43:16;6.10;99.90
13606;DHT22;6874;52.084;5.090;2023-04-06T07:45:42;6.10;99.90
13606;DHT22;6874;52.084;5.090;2023-04-06T07:48:08;6.20;99.90
13606;DHT22;6874;52.084;5.090;2023-04-06T07:50:33;6.20;99.90
13606;DHT22;6874;52.084;5.090;2023-04-06T07:52:59;6.20;99.90
13606;DHT22;6874;52.084;5.090;2023-04-06T07:55:25;6.30;99.90
13606;DHT22;6874;52.084;5.090;2023-04-06T07:57:51;6.40;99.90
13606;DHT22;6874;52.084;5.090;2023-04-06T08:00:17;6.40;99.90
13606;DHT22;6874;52.084;5.090;2023-04-06T08:02:42;6.50;99.90
13606;DHT22;6874;52.084;5.090;2023-04-06T08:05:08;6.50;99.90
13606;DHT22;6874;52.084;5.090;2023-04-06T08:07:34;6.60;99.90
13606;DHT22;6874;52.084;5.090;2023-04-06T08:10:01;6.60;99.90
13606;DHT22;6874;52.084;5.090;2023-04-06T08:12:26;6.60;99.90
13606;DHT22;6874;52.084;5.090;2023-04-06T08:14:52;6.70;99.90
13606;DHT22;6874;52.084;5.090;2023-04-06T08:17:18;6.70;99.90
13606;DHT22;6874;52.084;5.090;2023-04-06T08:19:44;6.80;99.90
13606;DHT22;6874;52.084;5.090;2023-04-06T08:22:10;6.90;99.90
13606;DHT22;6874;52.084;5.090;2023-04-06T08:24:35;6.90;99.90
13606;DHT22;6874;52.084;5.090;2023-04-06T08:27:01;7.00;99.90
13606;DHT22;6874;52.084;5.090;2023-04-06T08:29:26;7.00;99.90
13606;DHT22;6874;52.084;5.090;2023-04-06T08:31:52;7.10;99.90
13606;DHT22;6874;52.084;5.090;2023-04-06T08:34:18;7.10;99.90
13606;DHT22;6874;52.084;5.090;2023-04-06T08:36:43;7.10;99.90
13606;DHT22;6874;52.084;5.090;2023-04-06T08:39:09;7.10;99.90
13606;DHT22;6874;52.084;5.090;2023-04-06T08:41:35;7.20;99.90
13606;DHT22;6874;52.084;5.090;2023-04-06T08:44:02;7.20;99.90
13606;DHT22;6874;52.084;5.090;2023-04-06T08:46:29;7.30;99.90
13606;DHT22;6874;52.084;5.090;2023-04-06T08:49:00;7.30;99.90
13606;DHT22;6874;52.084;5.090;2023-04-06T08:51:26;7.30;99.90
13606;DHT22;6874;52.084;5.090;2023-04-06T08:53:53;7.30;99.90
13606;DHT22;6874;52.084;5.090;2023-04-06T08:56:21;7.40;99.90
13606;DHT22;6874;52.084;5.090;2023-04-06T08:58:47;7.40;99.90
13606;DHT22;6874;52.084;5.090;2023-04-06T09:01:14;7.40;99.90
13606;DHT22;6874;52.084;5.090;2023-04-06T09:03:42;7.50;99.90
13606;DHT22;6874;52.084;5.090;2023-04-06T09:06:09;7.50;99.90
13606;DHT22;6874;52.084;5.090;2023-04-06T09:08:35;7.50;99.90
13606;DHT22;6874;52.084;5.090;2023-04-06T09:11:02;7.60;99.90
13606;DHT22;6874;52.084;5.090;2023-04-06T09:13:28;7.60;99.90
13606;DHT22;6874;52.084;5.090;2023-04-06T09:16:02;7.60;99.90
13606;DHT22;6874;52.084;5.090;2023-04-06T09:18:29;7.60;99.90
13606;DHT22;6874;52.084;5.090;2023-04-06T09:21:04;7.70;99.90
13606;DHT22;6874;52.084;5.090;2023-04-06T09:23:29;7.70;99.90
13606;DHT22;6874;52.084;5.090;2023-04-06T09:26:17;7.70;99.90
13606;DHT22;6874;52.084;5.090;2023-04-06T09:28:51;7.80;99.90
13606;DHT22;6874;52.084;5.090;2023-04-06T09:31:25;7.80;99.90
13606;DHT22;6874;52.084;5.090;2023-04-06T09:33:51;7.80;99.90
13606;DHT22;6874;52.084;5.090;2023-04-06T09:36:20;7.90;99.90
13606;DHT22;6874;52.084;5.090;2023-04-06T09:38:56;7.90;99.90
13606;DHT22;6874;52.084;5.090;2023-04-06T09:41:27;8.00;99.90
13606;DHT22;6874;52.084;5.090;2023-04-06T09:44:08;8.00;99.90
13606;DHT22;6874;52.084;5.090;2023-04-06T09:46:36;8.10;99.90
13606;DHT22;6874;52.084;5.090;2023-04-06T09:49:03;8.10;99.90
13606;DHT22;6874;52.084;5.090;2023-04-06T09:51:31;8.20;99.90
13606;DHT22;6874;52.084;5.090;2023-04-06T09:54:01;8.20;99.90
13606;DHT22;6874;52.084;5.090;2023-04-06T09:56:30;8.30;99.90
13606;DHT22;6874;52.084;5.090;2023-04-06T09:59:02;8.30;99.90
13606;DHT22;6874;52.084;5.090;2023-04-06T10:01:30;8.40;99.90
13606;DHT22;6874;52.084;5.090;2023-04-06T10:06:33;8.40;99.90
13606;DHT22;6874;52.084;5.090;2023-04-06T10:09:02;8.40;99.90
13606;DHT22;6874;52.084;5.090;2023-04-06T10:11:28;8.50;99.90
13606;DHT22;6874;52.084;5.090;2023-04-06T10:13:55;8.40;99.90
13606;DHT22;6874;52.084;5.090;2023-04-06T10:16:21;8.50;99.90
13606;DHT22;6874;52.084;5.090;2023-04-06T10:18:54;8.50;99.90
13606;DHT22;6874;52.084;5.090;2023-04-06T10:21:23;8.60;99.90
13606;DHT22;6874;52.084;5.090;2023-04-06T10:23:57;8.60;99.90
13606;DHT22;6874;52.084;5.090;2023-04-06T10:26:24;8.60;99.90
13606;DHT22;6874;52.084;5.090;2023-04-06T10:28:50;8.70;99.90
13606;DHT22;6874;52.084;5.090;2023-04-06T10:31:27;8.70;99.90
13606;DHT22;6874;52.084;5.090;2023-04-06T10:34:03;8.70;99.90
13606;DHT22;6874;52.084;5.090;2023-04-06T10:36:33;8.80;99.90
13606;DHT22;6874;52.084;5.090;2023-04-06T10:39:00;8.80;99.90
13606;DHT22;6874;52.084;5.090;2023-04-06T10:41:44;8.80;99.90
13606;DHT22;6874;52.084;5.090;2023-04-06T10:44:21;8.80;99.90
13606;DHT22;6874;52.084;5.090;2023-04-06T10:46:57;8.90;99.90
13606;DHT22;6874;52.084;5.090;2023-04-06T10:49:24;8.90;99.90
13606;DHT22;6874;52.084;5.090;2023-04-06T10:51:56;8.90;99.90
13606;DHT22;6874;52.084;5.090;2023-04-06T10:54:24;8.90;99.90
13606;DHT22;6874;52.084;5.090;2023-04-06T10:56:50;9.00;99.90
13606;DHT22;6874;52.084;5.090;2023-04-06T10:59:20;9.00;99.90
13606;DHT22;6874;52.084;5.090;2023-04-06T11:01:46;9.00;99.90
13606;DHT22;6874;52.084;5.090;2023-04-06T11:04:19;9.00;99.90
13606;DHT22;6874;52.084;5.090;2023-04-06T11:06:48;9.10;99.90
13606;DHT22;6874;52.084;5.090;2023-04-06T11:09:28;9.10;99.90
13606;DHT22;6874;52.084;5.090;2023-04-06T11:11:54;9.10;99.90
13606;DHT22;6874;52.084;5.090;2023-04-06T11:14:20;9.20;99.90
13606;DHT22;6874;52.084;5.090;2023-04-06T11:16:47;9.20;99.90
13606;DHT22;6874;52.084;5.090;2023-04-06T11:19:16;9.20;99.90
13606;DHT22;6874;52.084;5.090;2023-04-06T11:21:44;9.20;99.90
13606;DHT22;6874;52.084;5.090;2023-04-06T11:24:22;9.20;99.90
13606;DHT22;6874;52.084;5.090;2023-04-06T11:26:50;9.30;99.90
13606;DHT22;6874;52.084;5.090;2023-04-06T11:29:21;9.30;99.90
13606;DHT22;6874;52.084;5.090;2023-04-06T11:31:48;9.20;99.90
13606;DHT22;6874;52.084;5.090;2023-04-06T11:34:19;9.30;99.90
13606;DHT22;6874;52.084;5.090;2023-04-06T11:36:47;9.30;99.90
13606;DHT22;6874;52.084;5.090;2023-04-06T11:39:21;9.40;99.90
13606;DHT22;6874;52.084;5.090;2023-04-06T11:41:58;9.40;99.90
13606;DHT22;6874;52.084;5.090;2023-04-06T11:44:44;9.40;99.90
13606;DHT22;6874;52.084;5.090;2023-04-06T11:47:12;9.40;99.90
13606;DHT22;6874;52.084;5.090;2023-04-06T11:49:39;9.50;99.90
13606;DHT22;6874;52.084;5.090;2023-04-06T11:52:22;9.50;99.90
13606;DHT22;6874;52.084;5.090;2023-04-06T11:54:49;9.50;99.90
13606;DHT22;6874;52.084;5.090;2023-04-06T11:57:15;9.50;99.90
13606;DHT22;6874;52.084;5.090;2023-04-06T11:59:42;9.60;99.90
13606;DHT22;6874;52.084;5.090;2023-04-06T12:02:08;9.60;99.90
13606;DHT22;6874;52.084;5.090;2023-04-06T12:04:33;9.60;99.90
13606;DHT22;6874;52.084;5.090;2023-04-06T12:06:59;9.60;99.90
13606;DHT22;6874;52.084;5.090;2023-04-06T12:09:25;9.60;99.90
13606;DHT22;6874;52.084;5.090;2023-04-06T12:11:51;9.60;99.90
13606;DHT22;6874;52.084;5.090;2023-04-06T12:14:16;9.70;99.90
13606;DHT22;6874;52.084;5.090;2023-04-06T12:16:42;9.70;99.90
13606;DHT22;6874;52.084;5.090;2023-04-06T12:19:07;9.70;99.90
13606;DHT22;6874;52.084;5.090;2023-04-06T12:21:34;9.70;99.90
13606;DHT22;6874;52.084;5.090;2023-04-06T12:24:02;9.70;99.90
13606;DHT22;6874;52.084;5.090;2023-04-06T12:26:29;9.70;99.90
13606;DHT22;6874;52.084;5.090;2023-04-06T12:28:54;9.70;99.90
13606;DHT22;6874;52.084;5.090;2023-04-06T12:31:22;9.70;99.90
13606;DHT22;6874;52.084;5.090;2023-04-06T12:33:50;9.70;99.90
13606;DHT22;6874;52.084;5.090;2023-04-06T12:36:18;9.70;99.90
13606;DHT22;6874;52.084;5.090;2023-04-06T12:38:44;9.70;99.90
13606;DHT22;6874;52.084;5.090;2023-04-06T12:41:11;9.70;99.90
13606;DHT22;6874;52.084;5.090;2023-04-06T12:43:37;9.70;99.90
13606;DHT22;6874;52.084;5.090;2023-04-06T12:46:03;9.60;99.90
13606;DHT22;6874;52.084;5.090;2023-04-06T12:48:28;9.60;99.90
13606;DHT22;6874;52.084;5.090;2023-04-06T12:51:04;9.60;99.90
13606;DHT22;6874;52.084;5.090;2023-04-06T12:53:31;9.70;99.90
13606;DHT22;6874;52.084;5.090;2023-04-06T12:55:58;9.60;99.90
13606;DHT22;6874;52.084;5.090;2023-04-06T12:58:24;9.60;99.90
13606;DHT22;6874;52.084;5.090;2023-04-06T13:00:51;9.60;99.90
13606;DHT22;6874;52.084;5.090;2023-04-06T13:03:17;9.60;99.90
13606;DHT22;6874;52.084;5.090;2023-04-06T13:05:44;9.60;99.90
13606;DHT22;6874;52.084;5.090;2023-04-06T13:08:10;9.60;99.90
13606;DHT22;6874;52.084;5.090;2023-04-06T13:10:36;9.60;99.90
13606;DHT22;6874;52.084;5.090;2023-04-06T13:13:02;9.60;99.90
13606;DHT22;6874;52.084;5.090;2023-04-06T13:15:28;9.60;99.90
13606;DHT22;6874;52.084;5.090;2023-04-06T13:17:53;9.60;99.90
13606;DHT22;6874;52.084;5.090;2023-04-06T13:20:19;9.50;99.90
13606;DHT22;6874;52.084;5.090;2023-04-06T13:22:44;9.60;99.90
13606;DHT22;6874;52.084;5.090;2023-04-06T13:25:10;9.60;99.90
13606;DHT22;6874;52.084;5.090;2023-04-06T13:27:36;9.60;99.90
13606;DHT22;6874;52.084;5.090;2023-04-06T13:30:02;9.60;99.90
13606;DHT22;6874;52.084;5.090;2023-04-06T13:32:28;9.60;99.90
13606;DHT22;6874;52.084;5.090;2023-04-06T13:34:57;9.60;99.90
13606;DHT22;6874;52.084;5.090;2023-04-06T13:37:23;9.60;99.90
13606;DHT22;6874;52.084;5.090;2023-04-06T13:39:49;9.60;99.90
13606;DHT22;6874;52.084;5.090;2023-04-06T13:42:14;9.60;99.90
13606;DHT22;6874;52.084;5.090;2023-04-06T13:44:40;9.60;99.90
13606;DHT22;6874;52.084;5.090;2023-04-06T13:47:06;9.60;99.90
13606;DHT22;6874;52.084;5.090;2023-04-06T13:49:31;9.60;99.90
13606;DHT22;6874;52.084;5.090;2023-04-06T13:51:57;9.60;99.90
13606;DHT22;6874;52.084;5.090;2023-04-06T13:54:23;9.60;99.90
13606;DHT22;6874;52.084;5.090;2023-04-06T13:56:48;9.50;99.90
13606;DHT22;6874;52.084;5.090;2023-04-06T13:59:14;9.60;99.90
13606;DHT22;6874;52.084;5.090;2023-04-06T14:01:40;9.50;99.90
13606;DHT22;6874;52.084;5.090;2023-04-06T14:04:06;9.50;99.90
13606;DHT22;6874;52.084;5.090;2023-04-06T14:06:31;9.50;99.90
13606;DHT22;6874;52.084;5.090;2023-04-06T14:08:57;9.50;99.90
13606;DHT22;6874;52.084;5.090;2023-04-06T14:11:23;9.50;99.90
13606;DHT22;6874;52.084;5.090;2023-04-06T14:13:49;9.50;99.90
13606;DHT22;6874;52.084;5.090;2023-04-06T14:16:14;9.50;99.90
13606;DHT22;6874;52.084;5.090;2023-04-06T14:18:40;9.50;99.90
13606;DHT22;6874;52.084;5.090;2023-04-06T14:21:06;9.50;99.90
13606;DHT22;6874;52.084;5.090;2023-04-06T14:23:31;9.50;99.90
13606;DHT22;6874;52.084;5.090;2023-04-06T14:26:05;9.50;99.90
13606;DHT22;6874;52.084;5.090;2023-04-06T14:28:32;9.50;99.90
13606;DHT22;6874;52.084;5.090;2023-04-06T14:30:59;9.50;99.90
13606;DHT22;6874;52.084;5.090;2023-04-06T14:33:29;9.40;99.90
13606;DHT22;6874;52.084;5.090;2023-04-06T14:35:55;9.40;99.90
13606;DHT22;6874;52.084;5.090;2023-04-06T14:38:21;9.40;99.90
13606;DHT22;6874;52.084;5.090;2023-04-06T14:40:47;9.40;99.90
13606;DHT22;6874;52.084;5.090;2023-04-06T14:43:13;9.40;99.90
13606;DHT22;6874;52.084;5.090;2023-04-06T14:45:39;9.40;99.90
13606;DHT22;6874;52.084;5.090;2023-04-06T14:48:05;9.50;99.90
13606;DHT22;6874;52.084;5.090;2023-04-06T14:50:38;9.40;99.90
13606;DHT22;6874;52.084;5.090;2023-04-06T14:53:03;9.40;99.90
13606;DHT22;6874;52.084;5.090;2023-04-06T14:55:32;9.40;99.90
13606;DHT22;6874;52.084;5.090;2023-04-06T14:57:58;9.40;99.90
13606;DHT22;6874;52.084;5.090;2023-04-06T15:00:23;9.40;99.90
13606;DHT22;6874;52.084;5.090;2023-04-06T15:02:49;9.40;99.90
13606;DHT22;6874;52.084;5.090;2023-04-06T15:05:15;9.40;99.90
13606;DHT22;6874;52.084;5.090;2023-04-06T15:07:40;9.40;99.90
13606;DHT22;6874;52.084;5.090;2023-04-06T15:10:06;9.40;99.90
13606;DHT22;6874;52.084;5.090;2023-04-06T15:12:32;9.40;99.90
13606;DHT22;6874;52.084;5.090;2023-04-06T15:15:00;9.40;99.90
13606;DHT22;6874;52.084;5.090;2023-04-06T15:17:26;9.40;99.90
13606;DHT22;6874;52.084;5.090;2023-04-06T15:19:52;9.30;99.90
13606;DHT22;6874;52.084;5.090;2023-04-06T15:22:18;9.30;99.90
13606;DHT22;6874;52.084;5.090;2023-04-06T15:24:44;9.30;99.90
13606;DHT22;6874;52.084;5.090;2023-04-06T15:27:09;9.40;99.90
13606;DHT22;6874;52.084;5.090;2023-04-06T15:29:35;9.30;99.90
13606;DHT22;6874;52.084;5.090;2023-04-06T15:32:00;9.30;99.90
13606;DHT22;6874;52.084;5.090;2023-04-06T15:34:27;9.30;99.90
13606;DHT22;6874;52.084;5.090;2023-04-06T15:36:55;9.30;99.90
13606;DHT22;6874;52.084;5.090;2023-04-06T15:39:24;9.30;99.90
13606;DHT22;6874;52.084;5.090;2023-04-06T15:41:49;9.30;99.90
13606;DHT22;6874;52.084;5.090;2023-04-06T15:44:15;9.30;99.90
13606;DHT22;6874;52.084;5.090;2023-04-06T15:46:40;9.30;99.90
13606;DHT22;6874;52.084;5.090;2023-04-06T15:49:06;9.20;99.90
13606;DHT22;6874;52.084;5.090;2023-04-06T15:51:32;9.30;99.90
13606;DHT22;6874;52.084;5.090;2023-04-06T15:53:58;9.30;99.90
13606;DHT22;6874;52.084;5.090;2023-04-06T15:56:23;9.30;99.90
13606;DHT22;6874;52.084;5.090;2023-04-06T15:58:49;9.20;99.90
13606;DHT22;6874;52.084;5.090;2023-04-06T16:01:17;9.20;99.90